| time (UTC) | temp F | wind direction | speed knots | gust knots | rain 1hr in | rain 24hr in | rain mn in | humidity % | barometer mb |
| 20260505150606 | 48 | 0 | 10.4 | 13.9 | 0.00 | 0.00 | 0.00 | 54 | 1006.6 |
| 20260505150106 | 48 | 0 | 7.8 | 14.8 | 0.00 | 0.00 | 0.00 | 56 | 1006.6 |
| 20260505140605 | 47 | 0 | 8.7 | 12.2 | 0.00 | 0.00 | 0.00 | 61 | 1006.9 |
| 20260505140106 | 47 | 0 | 5.2 | 13.9 | 0.00 | 0.00 | 0.00 | 62 | 1006.9 |
| 20260505120105 | 43 | 0 | 5.2 | 8.7 | 0.00 | 0.00 | 0.00 | 66 | 1005.7 |
| 20260505110605 | 42 | 0 | 2.6 | 5.2 | 0.00 | 0.00 | 0.00 | 69 | 1005.3 |
| 20260505110106 | 42 | 0 | 1.7 | 7.8 | 0.00 | 0.00 | 0.00 | 68 | 1005.3 |
| 20260505090605 | 45 | 0 | 2.6 | 4.3 | 0.00 | 0.00 | 0.00 | 59 | 1004.2 |
| 20260505080605 | 46 | 0 | 0.9 | 2.6 | 0.00 | 0.00 | 0.00 | 56 | 1003.3 |
| 20260505080105 | 47 | 0 | 0.9 | 12.2 | 0.00 | 0.00 | 0.00 | 55 | 1003.3 |
| 20260505070605 | 48 | 0 | 3.5 | 12.2 | 0.00 | 0.00 | 0.00 | 57 | 1003.0 |
| 20260505070105 | 48 | 0 | 2.6 | 14.8 | 0.00 | 0.00 | 0.00 | 57 | 1003.0 |
| 20260505060105 | 50 | 0 | 5.2 | 12.2 | 0.00 | 0.00 | 0.00 | 53 | 1002.8 |
| 20260505050605 | 52 | 0 | 5.2 | 12.2 | 0.00 | 0.00 | 0.00 | 53 | 1001.8 |
| 20260505040605 | 54 | 0 | 7.0 | 14.8 | 0.00 | 0.00 | 0.00 | 55 | 1000.4 |
| 20260505040105 | 54 | 0 | 4.3 | 14.8 | 0.00 | 0.00 | 0.00 | 55 | 1000.3 |
| 20260505030605 | 56 | 0 | 6.1 | 18.2 | 0.00 | 0.00 | 0.00 | 50 | 998.7 |
| 20260505020605 | 60 | 0 | 3.5 | 11.3 | 0.00 | 0.00 | 0.00 | 48 | 997.8 |
| 20260505020113 | 60 | 0 | 2.6 | 18.2 | 0.00 | 0.00 | 0.00 | 46 | 997.6 |
| 20260505010605 | 63 | 0 | 7.0 | 17.4 | 0.00 | 0.00 | 0.00 | 40 | 996.3 |
| 20260505010106 | 63 | 0 | 12.2 | 20.9 | 0.00 | 0.00 | 0.00 | 38 | 996.1 |
| 20260505000605 | 66 | 0 | 11.3 | 17.4 | 0.00 | 0.00 | 0.00 | 39 | 995.1 |
| 20260505000104 | 66 | 0 | 10.4 | 21.7 | 0.00 | 0.00 | 0.00 | 40 | 995.0 |
| 20260504230605 | 69 | 0 | 14.8 | 22.6 | 0.00 | 0.00 | 0.00 | 37 | 994.6 |
| 20260504230105 | 69 | 0 | 15.6 | 24.3 | 0.00 | 0.00 | 0.00 | 38 | 994.6 |
| 20260504220604 | 72 | 0 | 7.8 | 13.0 | 0.00 | 0.00 | 0.00 | 41 | 993.9 |
| 20260504220105 | 72 | 0 | 13.9 | 22.6 | 0.00 | 0.00 | 0.00 | 40 | 993.9 |
| 20260504210105 | 74 | 0 | 13.9 | 25.2 | 0.00 | 0.00 | 0.00 | 42 | 993.2 |
| 20260504200605 | 74 | 0 | 8.7 | 20.9 | 0.00 | 0.00 | 0.00 | 42 | 993.2 |
| 20260504200105 | 74 | 0 | 10.4 | 24.3 | 0.00 | 0.00 | 0.00 | 42 | 993.2 |
| 20260504180605 | 74 | 0 | 13.9 | 18.2 | 0.00 | 0.00 | 0.00 | 39 | 993.5 |
| 20260504180105 | 74 | 0 | 9.6 | 26.1 | 0.00 | 0.00 | 0.00 | 40 | 993.5 |
| 20260504170605 | 73 | 0 | 12.2 | 22.6 | 0.00 | 0.00 | 0.00 | 38 | 994.1 |
| 20260504170105 | 73 | 0 | 11.3 | 24.3 | 0.00 | 0.00 | 0.00 | 39 | 994.0 |
| 20260504160105 | 70 | 0 | 8.7 | 21.7 | 0.00 | 0.00 | 0.00 | 42 | 994.9 |